sensor_id;sensor_type;location;lat;lon;timestamp;pressure;altitude;pressure_sealevel;temperature;humidity
19023;BME280;35226;48.606;8.858;2023-06-10T00:00:12;95925.84;;;17.61;100.00
19023;BME280;35226;48.606;8.858;2023-06-10T00:02:41;95923.56;;;17.59;100.00
19023;BME280;35226;48.606;8.858;2023-06-10T00:05:08;95930.13;;;17.56;100.00
19023;BME280;35226;48.606;8.858;2023-06-10T00:07:35;95927.53;;;17.47;100.00
19023;BME280;35226;48.606;8.858;2023-06-10T00:10:07;95928.03;;;17.46;100.00
19023;BME280;35226;48.606;8.858;2023-06-10T00:12:33;95928.00;;;17.40;100.00
19023;BME280;35226;48.606;8.858;2023-06-10T00:15:06;95925.22;;;17.40;100.00
19023;BME280;35226;48.606;8.858;2023-06-10T00:17:32;95920.13;;;17.38;100.00
19023;BME280;35226;48.606;8.858;2023-06-10T00:19:58;95922.13;;;17.38;100.00
19023;BME280;35226;48.606;8.858;2023-06-10T00:22:23;95932.53;;;17.37;100.00
19023;BME280;35226;48.606;8.858;2023-06-10T00:24:55;95930.75;;;17.34;100.00
19023;BME280;35226;48.606;8.858;2023-06-10T00:27:22;95935.81;;;17.30;100.00
19023;BME280;35226;48.606;8.858;2023-06-10T00:29:47;95929.41;;;17.24;100.00
19023;BME280;35226;48.606;8.858;2023-06-10T00:32:13;95915.69;;;17.21;100.00
19023;BME280;35226;48.606;8.858;2023-06-10T00:34:38;95929.38;;;17.19;100.00
19023;BME280;35226;48.606;8.858;2023-06-10T00:37:04;95919.44;;;17.12;100.00
19023;BME280;35226;48.606;8.858;2023-06-10T00:39:30;95921.94;;;17.10;100.00
19023;BME280;35226;48.606;8.858;2023-06-10T00:41:55;95923.19;;;17.09;100.00
19023;BME280;35226;48.606;8.858;2023-06-10T00:44:21;95924.94;;;17.07;100.00
19023;BME280;35226;48.606;8.858;2023-06-10T00:46:47;95925.97;;;17.04;100.00
19023;BME280;35226;48.606;8.858;2023-06-10T00:49:14;95925.13;;;16.97;100.00
19023;BME280;35226;48.606;8.858;2023-06-10T00:51:40;95921.56;;;16.97;100.00
19023;BME280;35226;48.606;8.858;2023-06-10T00:54:06;95922.59;;;16.94;100.00
19023;BME280;35226;48.606;8.858;2023-06-10T00:56:33;95922.31;;;16.92;100.00
19023;BME280;35226;48.606;8.858;2023-06-10T00:59:01;95926.84;;;16.89;100.00
19023;BME280;35226;48.606;8.858;2023-06-10T01:01:28;95919.44;;;16.86;100.00
19023;BME280;35226;48.606;8.858;2023-06-10T01:03:55;95928.59;;;16.87;100.00
19023;BME280;35226;48.606;8.858;2023-06-10T01:06:36;95921.47;;;16.86;100.00
19023;BME280;35226;48.606;8.858;2023-06-10T01:14:36;95915.69;;;16.89;100.00
19023;BME280;35226;48.606;8.858;2023-06-10T01:17:02;95918.69;;;16.86;100.00
19023;BME280;35226;48.606;8.858;2023-06-10T01:19:28;95913.63;;;16.84;100.00
19023;BME280;35226;48.606;8.858;2023-06-10T01:21:57;95916.66;;;16.86;100.00
19023;BME280;35226;48.606;8.858;2023-06-10T01:24:26;95913.94;;;16.92;100.00
19023;BME280;35226;48.606;8.858;2023-06-10T01:26:53;95917.66;;;16.83;100.00
19023;BME280;35226;48.606;8.858;2023-06-10T01:29:36;95925.22;;;16.77;100.00
19023;BME280;35226;48.606;8.858;2023-06-10T01:32:18;95922.31;;;16.66;100.00
19023;BME280;35226;48.606;8.858;2023-06-10T01:34:47;95924.56;;;16.62;100.00
19023;BME280;35226;48.606;8.858;2023-06-10T01:37:18;95929.84;;;16.60;100.00
19023;BME280;35226;48.606;8.858;2023-06-10T01:39:45;95926.50;;;16.56;100.00
19023;BME280;35226;48.606;8.858;2023-06-10T01:42:12;95932.03;;;16.50;100.00
19023;BME280;35226;48.606;8.858;2023-06-10T01:44:39;95921.91;;;16.53;100.00
19023;BME280;35226;48.606;8.858;2023-06-10T01:47:08;95932.50;;;16.49;100.00
19023;BME280;35226;48.606;8.858;2023-06-10T01:49:34;95922.84;;;16.44;100.00
19023;BME280;35226;48.606;8.858;2023-06-10T01:51:59;95929.56;;;16.32;100.00
19023;BME280;35226;48.606;8.858;2023-06-10T01:54:25;95934.81;;;16.24;100.00
19023;BME280;35226;48.606;8.858;2023-06-10T01:56:51;95934.44;;;16.17;100.00
19023;BME280;35226;48.606;8.858;2023-06-10T01:59:16;95931.59;;;16.11;100.00
19023;BME280;35226;48.606;8.858;2023-06-10T02:01:42;95927.28;;;16.10;100.00
19023;BME280;35226;48.606;8.858;2023-06-10T02:04:09;95935.59;;;16.05;100.00
19023;BME280;35226;48.606;8.858;2023-06-10T02:06:35;95934.06;;;16.04;100.00
19023;BME280;35226;48.606;8.858;2023-06-10T02:09:02;95934.69;;;15.93;100.00
19023;BME280;35226;48.606;8.858;2023-06-10T02:11:28;95946.03;;;15.89;100.00
19023;BME280;35226;48.606;8.858;2023-06-10T02:13:54;95939.63;;;15.83;100.00
19023;BME280;35226;48.606;8.858;2023-06-10T02:16:20;95931.78;;;15.67;100.00
19023;BME280;35226;48.606;8.858;2023-06-10T02:18:46;95929.28;;;15.69;100.00
19023;BME280;35226;48.606;8.858;2023-06-10T02:21:12;95941.97;;;15.70;100.00
19023;BME280;35226;48.606;8.858;2023-06-10T02:23:37;95933.91;;;15.72;100.00
19023;BME280;35226;48.606;8.858;2023-06-10T02:26:03;95942.06;;;15.76;100.00
19023;BME280;35226;48.606;8.858;2023-06-10T02:28:29;95946.63;;;15.79;100.00
19023;BME280;35226;48.606;8.858;2023-06-10T02:30:56;95945.09;;;15.78;100.00
19023;BME280;35226;48.606;8.858;2023-06-10T02:33:22;95938.75;;;15.77;100.00
19023;BME280;35226;48.606;8.858;2023-06-10T02:35:49;95943.31;;;15.75;100.00
19023;BME280;35226;48.606;8.858;2023-06-10T02:38:15;95952.78;;;15.83;100.00
19023;BME280;35226;48.606;8.858;2023-06-10T02:40:42;95948.75;;;15.84;100.00
19023;BME280;35226;48.606;8.858;2023-06-10T02:43:09;95949.22;;;15.82;100.00
19023;BME280;35226;48.606;8.858;2023-06-10T02:45:35;95953.47;;;15.78;100.00
19023;BME280;35226;48.606;8.858;2023-06-10T02:48:02;95955.72;;;15.59;100.00
19023;BME280;35226;48.606;8.858;2023-06-10T02:50:29;95949.25;;;15.33;100.00
19023;BME280;35226;48.606;8.858;2023-06-10T02:53:03;95946.41;;;15.27;100.00
19023;BME280;35226;48.606;8.858;2023-06-10T02:55:32;95957.31;;;15.31;100.00
19023;BME280;35226;48.606;8.858;2023-06-10T02:58:02;95952.94;;;15.24;100.00
19023;BME280;35226;48.606;8.858;2023-06-10T03:00:28;95953.59;;;15.19;100.00
19023;BME280;35226;48.606;8.858;2023-06-10T03:02:54;95955.34;;;15.16;100.00
19023;BME280;35226;48.606;8.858;2023-06-10T03:05:25;95950.66;;;15.08;100.00
19023;BME280;35226;48.606;8.858;2023-06-10T03:07:53;95959.38;;;15.01;100.00
19023;BME280;35226;48.606;8.858;2023-06-10T03:10:19;95961.78;;;14.93;100.00
19023;BME280;35226;48.606;8.858;2023-06-10T03:12:45;95965.50;;;14.90;100.00
19023;BME280;35226;48.606;8.858;2023-06-10T03:15:11;95965.25;;;14.88;100.00
19023;BME280;35226;48.606;8.858;2023-06-10T03:17:37;95969.53;;;14.89;100.00
19023;BME280;35226;48.606;8.858;2023-06-10T03:20:03;95962.94;;;14.87;100.00
19023;BME280;35226;48.606;8.858;2023-06-10T03:22:34;95973.78;;;14.85;100.00
19023;BME280;35226;48.606;8.858;2023-06-10T03:25:05;95976.56;;;14.85;100.00
19023;BME280;35226;48.606;8.858;2023-06-10T03:27:33;95975.50;;;14.82;100.00
19023;BME280;35226;48.606;8.858;2023-06-10T03:30:04;95976.06;;;14.71;100.00
19023;BME280;35226;48.606;8.858;2023-06-10T03:32:31;95981.91;;;14.73;100.00
19023;BME280;35226;48.606;8.858;2023-06-10T03:34:58;95969.16;;;14.67;100.00
19023;BME280;35226;48.606;8.858;2023-06-10T03:37:26;95975.97;;;14.66;100.00
19023;BME280;35226;48.606;8.858;2023-06-10T03:39:52;95974.44;;;14.65;100.00
19023;BME280;35226;48.606;8.858;2023-06-10T03:42:17;95971.06;;;14.61;100.00
19023;BME280;35226;48.606;8.858;2023-06-10T03:44:43;95970.13;;;14.78;100.00
19023;BME280;35226;48.606;8.858;2023-06-10T03:47:08;95979.91;;;14.74;100.00
19023;BME280;35226;48.606;8.858;2023-06-10T03:49:36;95982.38;;;14.72;100.00
19023;BME280;35226;48.606;8.858;2023-06-10T03:52:03;95986.63;;;14.67;100.00
19023;BME280;35226;48.606;8.858;2023-06-10T03:54:29;95979.53;;;14.66;100.00
19023;BME280;35226;48.606;8.858;2023-06-10T03:56:54;95983.25;;;14.63;100.00
19023;BME280;35226;48.606;8.858;2023-06-10T03:59:20;95988.03;;;14.63;100.00
19023;BME280;35226;48.606;8.858;2023-06-10T04:01:46;95986.22;;;14.60;100.00
19023;BME280;35226;48.606;8.858;2023-06-10T04:04:14;95988.03;;;14.63;100.00
19023;BME280;35226;48.606;8.858;2023-06-10T04:06:42;95990.06;;;14.62;100.00
19023;BME280;35226;48.606;8.858;2023-06-10T04:09:09;95989.28;;;14.47;100.00
19023;BME280;35226;48.606;8.858;2023-06-10T04:11:36;95989.75;;;14.46;100.00
19023;BME280;35226;48.606;8.858;2023-06-10T04:14:02;95991.59;;;14.49;100.00
19023;BME280;35226;48.606;8.858;2023-06-10T04:16:29;95993.09;;;14.50;100.00
19023;BME280;35226;48.606;8.858;2023-06-10T04:18:55;95991.09;;;14.50;100.00
19023;BME280;35226;48.606;8.858;2023-06-10T04:21:21;95991.69;;;14.54;100.00
19023;BME280;35226;48.606;8.858;2023-06-10T04:23:47;95995.31;;;14.60;100.00
19023;BME280;35226;48.606;8.858;2023-06-10T04:26:13;95995.63;;;14.62;100.00
19023;BME280;35226;48.606;8.858;2023-06-10T04:28:38;95995.72;;;14.68;100.00
19023;BME280;35226;48.606;8.858;2023-06-10T04:31:04;96000.06;;;14.69;100.00
19023;BME280;35226;48.606;8.858;2023-06-10T04:33:30;96008.97;;;14.73;100.00
19023;BME280;35226;48.606;8.858;2023-06-10T04:35:56;96004.63;;;14.72;100.00
19023;BME280;35226;48.606;8.858;2023-06-10T04:38:24;96010.19;;;14.72;100.00
19023;BME280;35226;48.606;8.858;2023-06-10T04:40:50;96013.44;;;14.70;100.00
19023;BME280;35226;48.606;8.858;2023-06-10T04:43:17;96010.03;;;14.75;100.00
19023;BME280;35226;48.606;8.858;2023-06-10T04:45:45;96012.31;;;14.77;100.00
19023;BME280;35226;48.606;8.858;2023-06-10T04:48:11;96010.41;;;14.83;100.00
19023;BME280;35226;48.606;8.858;2023-06-10T04:50:37;96014.25;;;14.86;100.00
19023;BME280;35226;48.606;8.858;2023-06-10T04:53:03;96015.78;;;14.87;100.00
19023;BME280;35226;48.606;8.858;2023-06-10T04:55:29;96012.81;;;14.90;100.00
19023;BME280;35226;48.606;8.858;2023-06-10T04:57:55;96011.94;;;14.99;100.00
19023;BME280;35226;48.606;8.858;2023-06-10T05:00:23;96005.72;;;15.04;100.00
19023;BME280;35226;48.606;8.858;2023-06-10T05:02:49;96011.56;;;15.06;100.00
19023;BME280;35226;48.606;8.858;2023-06-10T05:05:18;96007.63;;;15.12;100.00
19023;BME280;35226;48.606;8.858;2023-06-10T05:07:43;96011.06;;;15.22;100.00
19023;BME280;35226;48.606;8.858;2023-06-10T05:10:09;96008.28;;;15.22;100.00
19023;BME280;35226;48.606;8.858;2023-06-10T05:12:35;96017.22;;;15.26;100.00
19023;BME280;35226;48.606;8.858;2023-06-10T05:15:01;96022.69;;;15.35;100.00
19023;BME280;35226;48.606;8.858;2023-06-10T05:17:26;96021.22;;;15.40;100.00
19023;BME280;35226;48.606;8.858;2023-06-10T05:19:53;96018.06;;;15.47;100.00
19023;BME280;35226;48.606;8.858;2023-06-10T05:22:18;96011.03;;;15.51;100.00
19023;BME280;35226;48.606;8.858;2023-06-10T05:24:44;96021.78;;;15.59;100.00
19023;BME280;35226;48.606;8.858;2023-06-10T05:27:10;96026.22;;;15.65;100.00
19023;BME280;35226;48.606;8.858;2023-06-10T05:29:36;96032.44;;;15.75;100.00
19023;BME280;35226;48.606;8.858;2023-06-10T05:32:01;96033.28;;;15.81;100.00
19023;BME280;35226;48.606;8.858;2023-06-10T05:34:31;96033.34;;;15.86;100.00
19023;BME280;35226;48.606;8.858;2023-06-10T05:36:57;96032.72;;;15.97;100.00
19023;BME280;35226;48.606;8.858;2023-06-10T05:39:22;96035.13;;;16.04;100.00
19023;BME280;35226;48.606;8.858;2023-06-10T05:41:48;96032.91;;;16.08;100.00
19023;BME280;35226;48.606;8.858;2023-06-10T05:44:14;96032.13;;;16.08;100.00
19023;BME280;35226;48.606;8.858;2023-06-10T05:46:39;96036.31;;;16.18;100.00
19023;BME280;35226;48.606;8.858;2023-06-10T05:49:05;96037.44;;;16.26;100.00
19023;BME280;35226;48.606;8.858;2023-06-10T05:51:30;96039.34;;;16.35;100.00
19023;BME280;35226;48.606;8.858;2023-06-10T05:53:56;96034.31;;;16.39;100.00
19023;BME280;35226;48.606;8.858;2023-06-10T05:56:21;96040.22;;;16.46;100.00
19023;BME280;35226;48.606;8.858;2023-06-10T05:58:48;96043.13;;;16.57;100.00
19023;BME280;35226;48.606;8.858;2023-06-10T06:01:14;96041.72;;;16.62;100.00
19023;BME280;35226;48.606;8.858;2023-06-10T06:03:39;96041.75;;;16.68;100.00
19023;BME280;35226;48.606;8.858;2023-06-10T06:06:05;96043.59;;;16.71;100.00
19023;BME280;35226;48.606;8.858;2023-06-10T06:08:31;96039.09;;;16.79;100.00
19023;BME280;35226;48.606;8.858;2023-06-10T06:10:56;96039.22;;;16.90;100.00
19023;BME280;35226;48.606;8.858;2023-06-10T06:13:22;96047.72;;;17.01;100.00
19023;BME280;35226;48.606;8.858;2023-06-10T06:15:47;96047.28;;;17.08;100.00
19023;BME280;35226;48.606;8.858;2023-06-10T06:18:13;96047.16;;;17.23;100.00
19023;BME280;35226;48.606;8.858;2023-06-10T06:20:40;96044.63;;;17.25;100.00
19023;BME280;35226;48.606;8.858;2023-06-10T06:23:05;96039.16;;;17.36;100.00
19023;BME280;35226;48.606;8.858;2023-06-10T06:25:31;96037.50;;;17.50;100.00
19023;BME280;35226;48.606;8.858;2023-06-10T06:27:57;96042.31;;;17.49;100.00
19023;BME280;35226;48.606;8.858;2023-06-10T06:30:22;96033.53;;;17.62;100.00
19023;BME280;35226;48.606;8.858;2023-06-10T06:32:48;96038.41;;;17.67;100.00
19023;BME280;35226;48.606;8.858;2023-06-10T06:35:13;96032.16;;;17.78;100.00
19023;BME280;35226;48.606;8.858;2023-06-10T06:37:39;96036.75;;;17.81;100.00
19023;BME280;35226;48.606;8.858;2023-06-10T06:40:30;96037.63;;;17.98;100.00
19023;BME280;35226;48.606;8.858;2023-06-10T06:42:56;96034.19;;;18.20;100.00
19023;BME280;35226;48.606;8.858;2023-06-10T06:45:32;96039.22;;;18.16;100.00
19023;BME280;35226;48.606;8.858;2023-06-10T06:47:59;96040.56;;;18.26;100.00
19023;BME280;35226;48.606;8.858;2023-06-10T06:50:24;96043.63;;;18.28;100.00
19023;BME280;35226;48.606;8.858;2023-06-10T06:52:50;96049.38;;;18.61;100.00
19023;BME280;35226;48.606;8.858;2023-06-10T06:55:16;96048.59;;;18.55;100.00
19023;BME280;35226;48.606;8.858;2023-06-10T06:57:41;96049.38;;;18.61;100.00
19023;BME280;35226;48.606;8.858;2023-06-10T07:00:07;96048.66;;;18.66;100.00
19023;BME280;35226;48.606;8.858;2023-06-10T07:02:35;96051.22;;;18.75;100.00
19023;BME280;35226;48.606;8.858;2023-06-10T07:05:00;96051.50;;;18.77;100.00
19023;BME280;35226;48.606;8.858;2023-06-10T07:07:26;96044.13;;;18.80;100.00
19023;BME280;35226;48.606;8.858;2023-06-10T07:09:52;96048.97;;;18.91;100.00
19023;BME280;35226;48.606;8.858;2023-06-10T07:12:17;96044.69;;;19.06;100.00
19023;BME280;35226;48.606;8.858;2023-06-10T07:14:44;96048.25;;;19.12;100.00
19023;BME280;35226;48.606;8.858;2023-06-10T07:17:10;96042.41;;;19.10;100.00
19023;BME280;35226;48.606;8.858;2023-06-10T07:19:35;96041.94;;;19.17;100.00
19023;BME280;35226;48.606;8.858;2023-06-10T07:22:01;96042.69;;;19.35;100.00
19023;BME280;35226;48.606;8.858;2023-06-10T07:24:27;96049.56;;;19.39;100.00
19023;BME280;35226;48.606;8.858;2023-06-10T07:26:52;96035.84;;;19.52;100.00
19023;BME280;35226;48.606;8.858;2023-06-10T07:29:18;96037.91;;;19.63;100.00
19023;BME280;35226;48.606;8.858;2023-06-10T07:31:43;96037.66;;;19.67;100.00
19023;BME280;35226;48.606;8.858;2023-06-10T07:34:09;96042.75;;;19.68;100.00
19023;BME280;35226;48.606;8.858;2023-06-10T07:36:34;96038.38;;;19.78;100.00
19023;BME280;35226;48.606;8.858;2023-06-10T07:39:00;96034.59;;;19.87;100.00
19023;BME280;35226;48.606;8.858;2023-06-10T07:41:25;96041.44;;;20.03;100.00
19023;BME280;35226;48.606;8.858;2023-06-10T07:43:52;96040.38;;;20.11;100.00
19023;BME280;35226;48.606;8.858;2023-06-10T07:46:21;96041.13;;;20.23;100.00
19023;BME280;35226;48.606;8.858;2023-06-10T07:48:47;96033.44;;;20.40;100.00
19023;BME280;35226;48.606;8.858;2023-06-10T07:51:14;96036.00;;;20.44;100.00
19023;BME280;35226;48.606;8.858;2023-06-10T07:53:40;96037.50;;;20.56;100.00
19023;BME280;35226;48.606;8.858;2023-06-10T07:56:06;96038.81;;;20.96;100.00
19023;BME280;35226;48.606;8.858;2023-06-10T07:58:31;96032.94;;;20.99;100.00
19023;BME280;35226;48.606;8.858;2023-06-10T08:00:57;96037.88;;;20.82;100.00
19023;BME280;35226;48.606;8.858;2023-06-10T08:03:23;96033.19;;;20.96;100.00
19023;BME280;35226;48.606;8.858;2023-06-10T08:05:48;96036.94;;;21.15;100.00
19023;BME280;35226;48.606;8.858;2023-06-10T08:08:14;96033.59;;;21.17;100.00
19023;BME280;35226;48.606;8.858;2023-06-10T08:10:39;96024.78;;;21.37;100.00
19023;BME280;35226;48.606;8.858;2023-06-10T08:13:10;96033.72;;;21.41;100.00
19023;BME280;35226;48.606;8.858;2023-06-10T08:28:46;96028.91;;;21.66;100.00
19023;BME280;35226;48.606;8.858;2023-06-10T08:31:11;96027.81;;;21.74;100.00
19023;BME280;35226;48.606;8.858;2023-06-10T08:33:37;96022.66;;;21.78;100.00
19023;BME280;35226;48.606;8.858;2023-06-10T08:36:02;96038.97;;;21.86;100.00
19023;BME280;35226;48.606;8.858;2023-06-10T08:38:28;96031.47;;;21.99;100.00
19023;BME280;35226;48.606;8.858;2023-06-10T08:40:56;96031.19;;;22.03;100.00
19023;BME280;35226;48.606;8.858;2023-06-10T08:43:37;96034.16;;;22.10;100.00
19023;BME280;35226;48.606;8.858;2023-06-10T08:46:08;96032.53;;;22.21;100.00
19023;BME280;35226;48.606;8.858;2023-06-10T08:48:35;96040.31;;;22.33;100.00
19023;BME280;35226;48.606;8.858;2023-06-10T08:51:04;96036.91;;;22.40;100.00
19023;BME280;35226;48.606;8.858;2023-06-10T08:53:33;96028.03;;;22.55;100.00
19023;BME280;35226;48.606;8.858;2023-06-10T08:56:04;96029.78;;;22.58;100.00
19023;BME280;35226;48.606;8.858;2023-06-10T08:58:32;96029.94;;;22.66;100.00
19023;BME280;35226;48.606;8.858;2023-06-10T09:00:58;96016.59;;;22.72;100.00
19023;BME280;35226;48.606;8.858;2023-06-10T09:03:25;96019.19;;;22.88;96.41
19023;BME280;35226;48.606;8.858;2023-06-10T09:05:51;96023.69;;;22.97;100.00
19023;BME280;35226;48.606;8.858;2023-06-10T09:08:16;96019.25;;;23.02;97.28
19023;BME280;35226;48.606;8.858;2023-06-10T09:10:43;96018.97;;;23.05;95.81
19023;BME280;35226;48.606;8.858;2023-06-10T09:13:09;96015.09;;;23.08;94.53
19023;BME280;35226;48.606;8.858;2023-06-10T09:15:34;96017.81;;;23.14;96.36
19023;BME280;35226;48.606;8.858;2023-06-10T09:18:00;96022.28;;;23.22;96.21
19023;BME280;35226;48.606;8.858;2023-06-10T09:20:25;96016.31;;;23.45;94.20
19023;BME280;35226;48.606;8.858;2023-06-10T09:22:51;96019.16;;;23.45;97.45
19023;BME280;35226;48.606;8.858;2023-06-10T09:30:33;96026.00;;;23.81;90.64
19023;BME280;35226;48.606;8.858;2023-06-10T09:33:11;96023.59;;;23.72;86.25
19023;BME280;35226;48.606;8.858;2023-06-10T09:35:48;96024.63;;;23.88;91.38
19023;BME280;35226;48.606;8.858;2023-06-10T09:38:23;96020.41;;;23.94;86.21
19023;BME280;35226;48.606;8.858;2023-06-10T09:40:53;96022.28;;;24.05;85.86
19023;BME280;35226;48.606;8.858;2023-06-10T09:43:19;96013.06;;;24.18;83.37
19023;BME280;35226;48.606;8.858;2023-06-10T09:45:48;96018.16;;;24.19;79.38
19023;BME280;35226;48.606;8.858;2023-06-10T09:48:13;96023.41;;;24.28;83.93
19023;BME280;35226;48.606;8.858;2023-06-10T09:50:45;96017.13;;;24.36;81.22
19023;BME280;35226;48.606;8.858;2023-06-10T09:53:12;96018.53;;;24.42;78.73
19023;BME280;35226;48.606;8.858;2023-06-10T09:55:38;96017.84;;;24.49;80.58
19023;BME280;35226;48.606;8.858;2023-06-10T09:58:04;96020.28;;;24.45;80.77
19023;BME280;35226;48.606;8.858;2023-06-10T10:00:32;96023.50;;;24.49;82.11
19023;BME280;35226;48.606;8.858;2023-06-10T10:02:58;96024.72;;;24.54;77.87
19023;BME280;35226;48.606;8.858;2023-06-10T10:05:23;96023.06;;;24.71;80.43
19023;BME280;35226;48.606;8.858;2023-06-10T10:07:50;96018.16;;;24.85;78.18
19023;BME280;35226;48.606;8.858;2023-06-10T10:10:18;96016.75;;;24.92;72.48
19023;BME280;35226;48.606;8.858;2023-06-10T10:12:46;96006.38;;;25.07;76.47
19023;BME280;35226;48.606;8.858;2023-06-10T10:15:11;96012.63;;;25.27;74.38
19023;BME280;35226;48.606;8.858;2023-06-10T10:17:40;96006.47;;;25.49;64.73
19023;BME280;35226;48.606;8.858;2023-06-10T10:20:07;96013.72;;;25.58;66.34
19023;BME280;35226;48.606;8.858;2023-06-10T10:22:41;96005.47;;;25.80;70.29
19023;BME280;35226;48.606;8.858;2023-06-10T10:25:11;96014.41;;;26.13;67.24
19023;BME280;35226;48.606;8.858;2023-06-10T10:28:02;96013.16;;;26.22;62.13
19023;BME280;35226;48.606;8.858;2023-06-10T10:30:30;96019.31;;;26.33;69.31
19023;BME280;35226;48.606;8.858;2023-06-10T10:33:12;96019.19;;;26.46;57.98
19023;BME280;35226;48.606;8.858;2023-06-10T10:35:38;96016.91;;;26.45;53.36
19023;BME280;35226;48.606;8.858;2023-06-10T10:38:04;96012.69;;;26.31;52.12
19023;BME280;35226;48.606;8.858;2023-06-10T10:40:30;96012.09;;;26.04;52.70
19023;BME280;35226;48.606;8.858;2023-06-10T10:42:58;96021.44;;;26.20;55.98
19023;BME280;35226;48.606;8.858;2023-06-10T10:45:27;96017.69;;;26.25;54.30
19023;BME280;35226;48.606;8.858;2023-06-10T10:47:54;96014.44;;;26.70;54.78
19023;BME280;35226;48.606;8.858;2023-06-10T10:50:23;96016.00;;;26.86;50.96
19023;BME280;35226;48.606;8.858;2023-06-10T10:55:17;95994.78;;;27.15;47.32
19023;BME280;35226;48.606;8.858;2023-06-10T10:57:43;95996.75;;;27.43;46.52
19023;BME280;35226;48.606;8.858;2023-06-10T11:00:09;95990.72;;;27.39;46.31
19023;BME280;35226;48.606;8.858;2023-06-10T11:02:45;95995.97;;;27.35;46.87
19023;BME280;35226;48.606;8.858;2023-06-10T11:05:15;95990.03;;;27.69;47.24
19023;BME280;35226;48.606;8.858;2023-06-10T11:07:52;95992.47;;;27.73;47.65
19023;BME280;35226;48.606;8.858;2023-06-10T11:10:28;95994.56;;;27.95;48.84
19023;BME280;35226;48.606;8.858;2023-06-10T11:12:54;95988.91;;;27.80;48.27
19023;BME280;35226;48.606;8.858;2023-06-10T11:15:25;95998.94;;;27.96;49.21
19023;BME280;35226;48.606;8.858;2023-06-10T11:18:12;95995.34;;;27.80;44.18
19023;BME280;35226;48.606;8.858;2023-06-10T11:31:19;95987.78;;;27.90;46.66
19023;BME280;35226;48.606;8.858;2023-06-10T11:33:47;95982.25;;;27.92;46.65
19023;BME280;35226;48.606;8.858;2023-06-10T11:36:13;95983.41;;;27.89;44.72
19023;BME280;35226;48.606;8.858;2023-06-10T11:38:40;95985.13;;;28.00;46.28
19023;BME280;35226;48.606;8.858;2023-06-10T11:41:06;95983.22;;;27.87;44.54
19023;BME280;35226;48.606;8.858;2023-06-10T11:43:33;95980.19;;;28.16;43.70
19023;BME280;35226;48.606;8.858;2023-06-10T11:45:59;95983.78;;;28.24;45.58
19023;BME280;35226;48.606;8.858;2023-06-10T11:48:25;95975.59;;;28.58;42.30
19023;BME280;35226;48.606;8.858;2023-06-10T11:50:53;95966.03;;;28.86;43.59
19023;BME280;35226;48.606;8.858;2023-06-10T11:53:19;95963.13;;;29.01;44.18
19023;BME280;35226;48.606;8.858;2023-06-10T11:55:46;95964.34;;;28.83;43.15
19023;BME280;35226;48.606;8.858;2023-06-10T11:58:21;95967.38;;;29.25;43.50
19023;BME280;35226;48.606;8.858;2023-06-10T12:00:48;95968.59;;;29.07;42.38
19023;BME280;35226;48.606;8.858;2023-06-10T12:03:14;95972.25;;;28.92;40.65
19023;BME280;35226;48.606;8.858;2023-06-10T12:05:40;95965.75;;;29.07;38.62
19023;BME280;35226;48.606;8.858;2023-06-10T12:08:12;95970.78;;;29.24;39.81
19023;BME280;35226;48.606;8.858;2023-06-10T12:10:41;95953.81;;;29.41;38.47
19023;BME280;35226;48.606;8.858;2023-06-10T12:13:08;95951.63;;;29.57;38.73
19023;BME280;35226;48.606;8.858;2023-06-10T12:15:35;95959.94;;;29.87;38.82
19023;BME280;35226;48.606;8.858;2023-06-10T12:18:01;95963.72;;;29.90;39.08
19023;BME280;35226;48.606;8.858;2023-06-10T12:20:31;95961.44;;;29.96;39.06
19023;BME280;35226;48.606;8.858;2023-06-10T12:22:59;95961.63;;;30.15;38.83
19023;BME280;35226;48.606;8.858;2023-06-10T12:25:25;95956.25;;;30.02;38.14
19023;BME280;35226;48.606;8.858;2023-06-10T12:27:56;95957.31;;;29.81;37.64
19023;BME280;35226;48.606;8.858;2023-06-10T12:30:24;95963.66;;;29.97;36.93
19023;BME280;35226;48.606;8.858;2023-06-10T12:32:50;95959.38;;;29.64;38.21
19023;BME280;35226;48.606;8.858;2023-06-10T12:35:17;95974.09;;;29.45;36.67
19023;BME280;35226;48.606;8.858;2023-06-10T12:37:55;95964.28;;;29.31;38.64
19023;BME280;35226;48.606;8.858;2023-06-10T12:40:29;95958.03;;;29.32;37.87
19023;BME280;35226;48.606;8.858;2023-06-10T12:42:55;95952.63;;;29.76;37.97
19023;BME280;35226;48.606;8.858;2023-06-10T12:45:38;95954.63;;;30.33;36.73
19023;BME280;35226;48.606;8.858;2023-06-10T12:48:23;95948.75;;;30.31;36.49
19023;BME280;35226;48.606;8.858;2023-06-10T12:50:57;95949.94;;;30.45;35.70
19023;BME280;35226;48.606;8.858;2023-06-10T12:53:23;95951.28;;;30.79;36.21
19023;BME280;35226;48.606;8.858;2023-06-10T12:55:52;95950.19;;;30.57;35.64
19023;BME280;35226;48.606;8.858;2023-06-10T12:58:21;95960.06;;;30.39;35.41
19023;BME280;35226;48.606;8.858;2023-06-10T13:00:47;95950.53;;;30.44;35.68
19023;BME280;35226;48.606;8.858;2023-06-10T13:03:18;95940.09;;;30.22;35.23
19023;BME280;35226;48.606;8.858;2023-06-10T13:05:43;95946.47;;;30.47;35.82
19023;BME280;35226;48.606;8.858;2023-06-10T13:08:09;95948.16;;;30.50;36.71
19023;BME280;35226;48.606;8.858;2023-06-10T13:10:35;95940.69;;;30.37;36.14
19023;BME280;35226;48.606;8.858;2023-06-10T13:13:01;95943.38;;;31.04;36.48
19023;BME280;35226;48.606;8.858;2023-06-10T13:15:31;95944.22;;;31.41;35.49
19023;BME280;35226;48.606;8.858;2023-06-10T13:17:56;95938.28;;;31.30;34.75
19023;BME280;35226;48.606;8.858;2023-06-10T13:20:22;95934.97;;;31.23;34.88
19023;BME280;35226;48.606;8.858;2023-06-10T13:22:48;95932.09;;;31.23;33.95
19023;BME280;35226;48.606;8.858;2023-06-10T13:25:14;95924.28;;;31.07;34.06
19023;BME280;35226;48.606;8.858;2023-06-10T13:27:40;95929.13;;;30.87;35.23
19023;BME280;35226;48.606;8.858;2023-06-10T13:30:08;95934.28;;;31.15;35.60